WST701 MYNN-MYGF
Flight info
| Callsign | WST701 |
|---|---|
| Flight time | 0h 25m |
| Altitude | 16000 |
| Route | PEACH BR65V ZFP |
| Aircraft | E145/M-SDFGIRW/S |
Departure
| Time | 2026-05-06 02:26 |
|---|---|
| Airport | Lynden Pindling International Airport (MYNN) |
Arrival
| Time | 2026-05-06 02:52 |
|---|---|
| Airport | Grand Bahama International Airport (MYGF) |
| Time | Latitude | Longitude | Altitude | Speed | Heading |
|---|---|---|---|---|---|
| 2026-05-06 02:11 | 25.04740 | -77.46524 | 23 ft | 0 kts | 358° |
| 2026-05-06 02:21 | 25.04742 | -77.46526 | 23 ft | 1 kts | 323° |
| 2026-05-06 02:21 | 25.04743 | -77.46532 | 23 ft | 0 kts | 258° |
| 2026-05-06 02:22 | 25.04733 | -77.46534 | 22 ft | 3 kts | 172° |
| 2026-05-06 02:22 | 25.04686 | -77.46553 | 22 ft | 11 kts | 222° |
| 2026-05-06 02:22 | 25.04678 | -77.46561 | 22 ft | 3 kts | 225° |
| 2026-05-06 02:22 | 25.04666 | -77.46594 | 22 ft | 7 kts | 278° |
| 2026-05-06 02:23 | 25.04724 | -77.46672 | 22 ft | 12 kts | 303° |
| 2026-05-06 02:23 | 25.04709 | -77.46759 | 22 ft | 12 kts | 269° |
| 2026-05-06 02:23 | 25.04761 | -77.46839 | 23 ft | 13 kts | 317° |
| 2026-05-06 02:23 | 25.04828 | -77.46914 | 24 ft | 13 kts | 314° |
| 2026-05-06 02:24 | 25.04896 | -77.46992 | 25 ft | 14 kts | 314° |
| 2026-05-06 02:24 | 25.04968 | -77.47072 | 26 ft | 15 kts | 316° |
| 2026-05-06 02:24 | 25.05048 | -77.47160 | 26 ft | 16 kts | 313° |
| 2026-05-06 02:24 | 25.05136 | -77.47260 | 24 ft | 19 kts | 315° |
| 2026-05-06 02:25 | 25.05213 | -77.47388 | 22 ft | 21 kts | 283° |
| 2026-05-06 02:25 | 25.05152 | -77.47517 | 23 ft | 19 kts | 171° |
| 2026-05-06 02:25 | 25.05050 | -77.47420 | 23 ft | 22 kts | 136° |
| 2026-05-06 02:25 | 25.04772 | -77.47113 | 26 ft | 91 kts | 136° |
| 2026-05-06 02:26 | 25.04172 | -77.46443 | 44 ft | 144 kts | 135° |
| 2026-05-06 02:26 | 25.03512 | -77.45709 | 616 ft | 131 kts | 135° |
| 2026-05-06 02:26 | 25.02823 | -77.44909 | 969 ft | 146 kts | 131° |
| 2026-05-06 02:26 | 25.02168 | -77.44095 | 1492 ft | 153 kts | 130° |
| 2026-05-06 02:27 | 25.01519 | -77.43127 | 2052 ft | 156 kts | 117° |
| 2026-05-06 02:27 | 25.01224 | -77.41997 | 2581 ft | 164 kts | 90° |
| 2026-05-06 02:27 | 25.01609 | -77.40888 | 3277 ft | 155 kts | 39° |
| 2026-05-06 02:27 | 25.02596 | -77.40494 | 3717 ft | 163 kts | 351° |
| 2026-05-06 02:28 | 25.03667 | -77.41060 | 4028 ft | 180 kts | 322° |
| 2026-05-06 02:28 | 25.04755 | -77.41924 | 4293 ft | 209 kts | 323° |
| 2026-05-06 02:28 | 25.06039 | -77.42934 | 4492 ft | 238 kts | 321° |
| 2026-05-06 02:28 | 25.07381 | -77.44129 | 4851 ft | 256 kts | 319° |
| 2026-05-06 02:29 | 25.08804 | -77.45402 | 5493 ft | 261 kts | 319° |
| 2026-05-06 02:29 | 25.10244 | -77.46690 | 6221 ft | 262 kts | 318° |
| 2026-05-06 02:29 | 25.11722 | -77.48014 | 6937 ft | 272 kts | 318° |
| 2026-05-06 02:29 | 25.13159 | -77.49301 | 7978 ft | 267 kts | 318° |
| 2026-05-06 02:30 | 25.14603 | -77.50595 | 8881 ft | 268 kts | 317° |
| 2026-05-06 02:30 | 25.16058 | -77.51900 | 9706 ft | 271 kts | 317° |
| 2026-05-06 02:30 | 25.17543 | -77.53232 | 10484 ft | 275 kts | 317° |
| 2026-05-06 02:30 | 25.19053 | -77.54587 | 11061 ft | 286 kts | 318° |
| 2026-05-06 02:31 | 25.20652 | -77.56022 | 11595 ft | 298 kts | 318° |
| 2026-05-06 02:31 | 25.22306 | -77.57507 | 12118 ft | 310 kts | 319° |
| 2026-05-06 02:31 | 25.24020 | -77.59045 | 12697 ft | 317 kts | 319° |
| 2026-05-06 02:31 | 25.25757 | -77.60605 | 13408 ft | 320 kts | 319° |
| 2026-05-06 02:32 | 25.27512 | -77.62180 | 14105 ft | 321 kts | 318° |
| 2026-05-06 02:32 | 25.29222 | -77.63831 | 14763 ft | 323 kts | 317° |
| 2026-05-06 02:32 | 25.30937 | -77.65506 | 15402 ft | 326 kts | 316° |
| 2026-05-06 02:32 | 25.32669 | -77.67201 | 15929 ft | 331 kts | 317° |
| 2026-05-06 02:33 | 25.34473 | -77.68970 | 16031 ft | 350 kts | 317° |
| 2026-05-06 02:33 | 25.35738 | -77.70209 | 16038 ft | 364 kts | 317° |
| 2026-05-06 02:33 | 25.40471 | -77.74850 | 16039 ft | 404 kts | 317° |
| 2026-05-06 02:34 | 25.42617 | -77.76952 | 16041 ft | 417 kts | 318° |
| 2026-05-06 02:34 | 25.44972 | -77.78932 | 16040 ft | 427 kts | 322° |
| 2026-05-06 02:34 | 25.47400 | -77.80898 | 16039 ft | 436 kts | 322° |
| 2026-05-06 02:34 | 25.49883 | -77.82914 | 16039 ft | 442 kts | 322° |
| 2026-05-06 02:35 | 25.52380 | -77.84943 | 16039 ft | 447 kts | 322° |
| 2026-05-06 02:35 | 25.54946 | -77.87030 | 16040 ft | 451 kts | 322° |
| 2026-05-06 02:35 | 25.57542 | -77.89008 | 16038 ft | 455 kts | 327° |
| 2026-05-06 02:35 | 25.60135 | -77.91127 | 16047 ft | 455 kts | 320° |
| 2026-05-06 02:36 | 25.62676 | -77.93291 | 16045 ft | 458 kts | 322° |
| 2026-05-06 02:36 | 25.65226 | -77.95395 | 16050 ft | 460 kts | 322° |
| 2026-05-06 02:36 | 25.67827 | -77.97523 | 16048 ft | 461 kts | 322° |
| 2026-05-06 02:36 | 25.70400 | -77.99626 | 16052 ft | 462 kts | 322° |
| 2026-05-06 02:37 | 25.73018 | -78.01765 | 16046 ft | 463 kts | 322° |
| 2026-05-06 02:37 | 25.75606 | -78.03879 | 16049 ft | 464 kts | 322° |
| 2026-05-06 02:37 | 25.78193 | -78.05994 | 16048 ft | 465 kts | 322° |
| 2026-05-06 02:37 | 25.80797 | -78.08124 | 16046 ft | 465 kts | 322° |
| 2026-05-06 02:38 | 25.83436 | -78.10284 | 16046 ft | 466 kts | 322° |
| 2026-05-06 02:38 | 25.86023 | -78.12403 | 16049 ft | 466 kts | 322° |
| 2026-05-06 02:38 | 25.88633 | -78.14542 | 16045 ft | 466 kts | 322° |
| 2026-05-06 02:38 | 25.91252 | -78.16689 | 16048 ft | 466 kts | 322° |
| 2026-05-06 02:39 | 25.93876 | -78.18842 | 16047 ft | 466 kts | 322° |
| 2026-05-06 02:39 | 25.96463 | -78.20965 | 16047 ft | 466 kts | 322° |
| 2026-05-06 02:39 | 25.99086 | -78.23119 | 15664 ft | 458 kts | 322° |
| 2026-05-06 02:39 | 26.01582 | -78.25170 | 14469 ft | 442 kts | 322° |
| 2026-05-06 02:40 | 26.03992 | -78.27151 | 13281 ft | 429 kts | 322° |
| 2026-05-06 02:40 | 26.06354 | -78.29094 | 12079 ft | 418 kts | 322° |
| 2026-05-06 02:40 | 26.08662 | -78.30994 | 10874 ft | 409 kts | 322° |
| 2026-05-06 02:40 | 26.10895 | -78.32832 | 9686 ft | 401 kts | 322° |
| 2026-05-06 02:41 | 26.12977 | -78.34863 | 8460 ft | 393 kts | 309° |
| 2026-05-06 02:41 | 26.14535 | -78.37288 | 7272 ft | 386 kts | 304° |
| 2026-05-06 02:41 | 26.16037 | -78.39701 | 6071 ft | 381 kts | 304° |
| 2026-05-06 02:41 | 26.17524 | -78.42093 | 4866 ft | 377 kts | 304° |
| 2026-05-06 02:42 | 26.18996 | -78.44459 | 3663 ft | 374 kts | 305° |
| 2026-05-06 02:42 | 26.20478 | -78.46843 | 2454 ft | 371 kts | 305° |
| 2026-05-06 02:42 | 26.21965 | -78.49233 | 2079 ft | 383 kts | 306° |
| 2026-05-06 02:42 | 26.23517 | -78.51732 | 2056 ft | 398 kts | 306° |
| 2026-05-06 02:43 | 26.25110 | -78.54298 | 2052 ft | 409 kts | 306° |
| 2026-05-06 02:43 | 26.26747 | -78.56936 | 2051 ft | 416 kts | 306° |
| 2026-05-06 02:43 | 26.28383 | -78.59621 | 2048 ft | 421 kts | 303° |
| 2026-05-06 02:43 | 26.29997 | -78.62440 | 2033 ft | 423 kts | 310° |
| 2026-05-06 02:44 | 26.32245 | -78.64579 | 2034 ft | 423 kts | 330° |
| 2026-05-06 02:44 | 26.34957 | -78.65855 | 2049 ft | 422 kts | 341° |
| 2026-05-06 02:44 | 26.37546 | -78.67447 | 2037 ft | 426 kts | 322° |
| 2026-05-06 02:44 | 26.39691 | -78.69716 | 1892 ft | 431 kts | 319° |
| 2026-05-06 02:45 | 26.42219 | -78.71638 | 1679 ft | 433 kts | 328° |
| 2026-05-06 02:45 | 26.44748 | -78.73570 | 1638 ft | 431 kts | 330° |
| 2026-05-06 02:45 | 26.47559 | -78.74714 | 1633 ft | 428 kts | 350° |
| 2026-05-06 02:45 | 26.50392 | -78.74876 | 1515 ft | 379 kts | 2° |
| 2026-05-06 02:46 | 26.52745 | -78.74425 | 1216 ft | 315 kts | 23° |
| 2026-05-06 02:46 | 26.54201 | -78.72963 | 837 ft | 263 kts | 61° |
| 2026-05-06 02:46 | 26.54999 | -78.71313 | 234 ft | 225 kts | 61° |
| 2026-05-06 02:46 | 26.55671 | -78.69956 | 20 ft | 174 kts | 60° |
| 2026-05-06 02:47 | 26.56199 | -78.68898 | 13 ft | 142 kts | 60° |
| 2026-05-06 02:47 | 26.56702 | -78.67903 | 345 ft | 147 kts | 60° |
| 2026-05-06 02:47 | 26.57020 | -78.67312 | 583 ft | 156 kts | 59° |
| 2026-05-06 02:47 | 26.57588 | -78.66246 | 799 ft | 180 kts | 59° |
| 2026-05-06 02:48 | 26.58279 | -78.64991 | 1167 ft | 194 kts | 53° |
| 2026-05-06 02:48 | 26.59383 | -78.64208 | 1524 ft | 206 kts | 15° |
| 2026-05-06 02:48 | 26.60776 | -78.64389 | 1921 ft | 217 kts | 338° |
| 2026-05-06 02:48 | 26.61886 | -78.65490 | 2037 ft | 239 kts | 305° |
| 2026-05-06 02:49 | 26.62348 | -78.67296 | 2039 ft | 260 kts | 272° |
| 2026-05-06 02:49 | 26.61880 | -78.69156 | 2017 ft | 239 kts | 238° |
| 2026-05-06 02:49 | 26.60874 | -78.70557 | 2042 ft | 221 kts | 230° |
| 2026-05-06 02:49 | 26.59935 | -78.71849 | 2042 ft | 212 kts | 230° |
| 2026-05-06 02:50 | 26.58972 | -78.73110 | 2008 ft | 203 kts | 227° |
| 2026-05-06 02:50 | 26.58037 | -78.74226 | 1815 ft | 193 kts | 224° |
| 2026-05-06 02:50 | 26.56910 | -78.74690 | 1743 ft | 166 kts | 163° |
| 2026-05-06 02:50 | 26.55941 | -78.73997 | 1418 ft | 171 kts | 137° |
| 2026-05-06 02:51 | 26.55084 | -78.73161 | 937 ft | 154 kts | 123° |
| 2026-05-06 02:51 | 26.54800 | -78.72079 | 440 ft | 140 kts | 87° |
| 2026-05-06 02:51 | 26.55107 | -78.71114 | 93 ft | 125 kts | 62° |
| 2026-05-06 02:51 | 26.55517 | -78.70260 | 17 ft | 122 kts | 61° |
| 2026-05-06 02:52 | 26.55841 | -78.69617 | 12 ft | 39 kts | 57° |
| 2026-05-06 02:52 | 26.55870 | -78.69460 | 12 ft | 17 kts | 126° |
| 2026-05-06 02:52 | 26.55764 | -78.69466 | 12 ft | 18 kts | 221° |
| 2026-05-06 02:52 | 26.55666 | -78.69564 | 12 ft | 19 kts | 222° |
| 2026-05-06 02:53 | 26.55557 | -78.69669 | 12 ft | 21 kts | 221° |
| 2026-05-06 02:53 | 26.55440 | -78.69782 | 12 ft | 22 kts | 220° |
| 2026-05-06 02:53 | 26.55316 | -78.69905 | 12 ft | 24 kts | 220° |
| 2026-05-06 02:53 | 26.55185 | -78.70032 | 12 ft | 25 kts | 221° |
| 2026-05-06 02:54 | 26.55080 | -78.70132 | 12 ft | 13 kts | 220° |
| 2026-05-06 02:54 | 26.55002 | -78.70207 | 12 ft | 15 kts | 219° |
| 2026-05-06 02:54 | 26.54920 | -78.70207 | 12 ft | 17 kts | 88° |
| 2026-05-06 02:54 | 26.54919 | -78.70060 | 12 ft | 21 kts | 89° |
| 2026-05-06 02:55 | 26.54914 | -78.69881 | 12 ft | 25 kts | 91° |
| 2026-05-06 02:55 | 26.54903 | -78.69759 | 12 ft | 4 kts | 148° |
| 2026-05-06 02:55 | 26.54870 | -78.69768 | 12 ft | 2 kts | 230° |
| 2026-05-06 02:55 | 26.54868 | -78.69772 | 12 ft | 0 kts | 231° |